sensor_id;sensor_type;location;lat;lon;timestamp;temperature;humidity
48946;DHT22;34999;50.940;3.998;2023-06-24T00:00:35;17.60;28.40
48946;DHT22;34999;50.940;3.998;2023-06-24T00:03:04;17.50;29.50
48946;DHT22;34999;50.940;3.998;2023-06-24T00:05:35;17.40;39.20
48946;DHT22;34999;50.940;3.998;2023-06-24T00:08:07;17.40;49.20
48946;DHT22;34999;50.940;3.998;2023-06-24T00:10:38;17.40;47.30
48946;DHT22;34999;50.940;3.998;2023-06-24T00:13:06;17.30;25.70
48946;DHT22;34999;50.940;3.998;2023-06-24T00:15:37;17.20;27.90
48946;DHT22;34999;50.940;3.998;2023-06-24T00:18:09;17.20;6.10
48946;DHT22;34999;50.940;3.998;2023-06-24T00:20:38;17.20;3.20
48946;DHT22;34999;50.940;3.998;2023-06-24T00:23:10;17.20;1.00
48946;DHT22;34999;50.940;3.998;2023-06-24T00:25:42;17.20;17.40
48946;DHT22;34999;50.940;3.998;2023-06-24T00:28:11;17.20;6.30
48946;DHT22;34999;50.940;3.998;2023-06-24T00:30:39;17.20;3.00
48946;DHT22;34999;50.940;3.998;2023-06-24T00:33:07;17.20;1.00
48946;DHT22;34999;50.940;3.998;2023-06-24T00:35:38;17.20;1.00
48946;DHT22;34999;50.940;3.998;2023-06-24T00:38:07;17.20;1.00
48946;DHT22;34999;50.940;3.998;2023-06-24T00:40:35;17.20;1.00
48946;DHT22;34999;50.940;3.998;2023-06-24T00:43:05;17.20;1.00
48946;DHT22;34999;50.940;3.998;2023-06-24T00:45:34;17.20;1.00
48946;DHT22;34999;50.940;3.998;2023-06-24T00:48:03;17.20;1.00
48946;DHT22;34999;50.940;3.998;2023-06-24T00:50:32;17.20;1.00
48946;DHT22;34999;50.940;3.998;2023-06-24T00:53:00;17.10;1.00
48946;DHT22;34999;50.940;3.998;2023-06-24T00:55:28;17.10;1.00
48946;DHT22;34999;50.940;3.998;2023-06-24T00:57:57;17.00;1.00
48946;DHT22;34999;50.940;3.998;2023-06-24T01:00:28;16.90;1.00
48946;DHT22;34999;50.940;3.998;2023-06-24T01:02:56;16.90;1.00
48946;DHT22;34999;50.940;3.998;2023-06-24T01:05:26;16.80;2.00
48946;DHT22;34999;50.940;3.998;2023-06-24T01:07:55;16.70;10.60
48946;DHT22;34999;50.940;3.998;2023-06-24T01:10:24;16.70;19.10
48946;DHT22;34999;50.940;3.998;2023-06-24T01:12:53;16.60;33.50
48946;DHT22;34999;50.940;3.998;2023-06-24T01:15:21;16.50;43.50
48946;DHT22;34999;50.940;3.998;2023-06-24T01:17:56;16.50;47.30
48946;DHT22;34999;50.940;3.998;2023-06-24T01:20:29;16.40;57.40
48946;DHT22;34999;50.940;3.998;2023-06-24T01:26:20;16.30;58.30
48946;DHT22;34999;50.940;3.998;2023-06-24T01:31:51;16.20;58.50
48946;DHT22;34999;50.940;3.998;2023-06-24T01:34:24;16.10;42.50
48946;DHT22;34999;50.940;3.998;2023-06-24T01:37:00;16.10;59.10
48946;DHT22;34999;50.940;3.998;2023-06-24T01:39:32;16.00;66.80
48946;DHT22;34999;50.940;3.998;2023-06-24T01:42:07;16.00;63.60
48946;DHT22;34999;50.940;3.998;2023-06-24T01:44:37;16.00;57.10
48946;DHT22;34999;50.940;3.998;2023-06-24T01:47:09;15.90;54.80
48946;DHT22;34999;50.940;3.998;2023-06-24T01:49:41;15.90;54.30
48946;DHT22;34999;50.940;3.998;2023-06-24T01:52:11;15.90;56.30
48946;DHT22;34999;50.940;3.998;2023-06-24T01:54:41;15.80;60.80
48946;DHT22;34999;50.940;3.998;2023-06-24T01:57:12;15.80;59.50
48946;DHT22;34999;50.940;3.998;2023-06-24T01:59:42;15.80;70.50
48946;DHT22;34999;50.940;3.998;2023-06-24T02:02:14;15.80;80.70
48946;DHT22;34999;50.940;3.998;2023-06-24T02:04:48;15.70;88.20
48946;DHT22;34999;50.940;3.998;2023-06-24T02:07:17;15.60;82.60
48946;DHT22;34999;50.940;3.998;2023-06-24T02:09:46;15.60;94.70
48946;DHT22;34999;50.940;3.998;2023-06-24T02:12:15;15.50;92.50
48946;DHT22;34999;50.940;3.998;2023-06-24T02:14:44;15.50;99.90
48946;DHT22;34999;50.940;3.998;2023-06-24T02:17:14;15.40;99.90
48946;DHT22;34999;50.940;3.998;2023-06-24T02:19:43;15.40;98.10
48946;DHT22;34999;50.940;3.998;2023-06-24T02:22:12;15.30;98.80
48946;DHT22;34999;50.940;3.998;2023-06-24T02:24:41;15.30;99.90
48946;DHT22;34999;50.940;3.998;2023-06-24T02:27:10;15.20;99.10
48946;DHT22;34999;50.940;3.998;2023-06-24T02:29:40;15.20;99.90
48946;DHT22;34999;50.940;3.998;2023-06-24T02:32:09;15.20;98.40
48946;DHT22;34999;50.940;3.998;2023-06-24T02:34:39;15.20;97.90
48946;DHT22;34999;50.940;3.998;2023-06-24T02:37:07;15.20;98.70
48946;DHT22;34999;50.940;3.998;2023-06-24T02:39:36;15.20;97.00
48946;DHT22;34999;50.940;3.998;2023-06-24T02:42:11;15.30;99.10
48946;DHT22;34999;50.940;3.998;2023-06-24T02:44:40;15.30;99.90
48946;DHT22;34999;50.940;3.998;2023-06-24T02:47:10;15.30;96.00
48946;DHT22;34999;50.940;3.998;2023-06-24T02:49:44;15.20;99.00
48946;DHT22;34999;50.940;3.998;2023-06-24T02:52:15;15.20;94.50
48946;DHT22;34999;50.940;3.998;2023-06-24T02:54:44;15.20;96.20
48946;DHT22;34999;50.940;3.998;2023-06-24T02:57:13;15.20;95.40
48946;DHT22;34999;50.940;3.998;2023-06-24T02:59:42;15.30;90.90
48946;DHT22;34999;50.940;3.998;2023-06-24T03:02:11;15.30;91.00
48946;DHT22;34999;50.940;3.998;2023-06-24T03:04:41;15.30;85.60
48946;DHT22;34999;50.940;3.998;2023-06-24T03:07:10;15.30;81.00
48946;DHT22;34999;50.940;3.998;2023-06-24T03:09:38;15.30;90.10
48946;DHT22;34999;50.940;3.998;2023-06-24T03:12:08;15.30;88.50
48946;DHT22;34999;50.940;3.998;2023-06-24T03:14:36;15.30;90.80
48946;DHT22;34999;50.940;3.998;2023-06-24T03:17:05;15.20;88.00
48946;DHT22;34999;50.940;3.998;2023-06-24T03:19:33;15.20;90.60
48946;DHT22;34999;50.940;3.998;2023-06-24T03:22:03;15.20;87.30
48946;DHT22;34999;50.940;3.998;2023-06-24T03:24:31;15.20;87.70
48946;DHT22;34999;50.940;3.998;2023-06-24T03:26:59;15.20;88.00
48946;DHT22;34999;50.940;3.998;2023-06-24T03:29:28;15.20;86.40
48946;DHT22;34999;50.940;3.998;2023-06-24T03:31:56;15.20;90.00
48946;DHT22;34999;50.940;3.998;2023-06-24T03:34:24;15.20;91.00
48946;DHT22;34999;50.940;3.998;2023-06-24T03:36:53;15.20;92.60
48946;DHT22;34999;50.940;3.998;2023-06-24T03:39:24;15.10;93.40
48946;DHT22;34999;50.940;3.998;2023-06-24T03:41:52;15.10;95.10
48946;DHT22;34999;50.940;3.998;2023-06-24T03:44:20;15.20;94.20
48946;DHT22;34999;50.940;3.998;2023-06-24T03:46:49;15.10;97.40
48946;DHT22;34999;50.940;3.998;2023-06-24T03:49:17;15.10;99.90
48946;DHT22;34999;50.940;3.998;2023-06-24T03:51:46;15.10;99.90
48946;DHT22;34999;50.940;3.998;2023-06-24T03:54:14;15.10;99.90
48946;DHT22;34999;50.940;3.998;2023-06-24T03:56:44;15.10;99.90
48946;DHT22;34999;50.940;3.998;2023-06-24T03:59:12;15.00;99.90
48946;DHT22;34999;50.940;3.998;2023-06-24T04:01:40;15.00;99.90
48946;DHT22;34999;50.940;3.998;2023-06-24T04:04:09;15.00;99.90
48946;DHT22;34999;50.940;3.998;2023-06-24T04:06:37;15.10;99.90
48946;DHT22;34999;50.940;3.998;2023-06-24T04:09:06;15.10;99.90
48946;DHT22;34999;50.940;3.998;2023-06-24T04:11:36;15.10;99.90
48946;DHT22;34999;50.940;3.998;2023-06-24T04:14:06;15.10;98.10
48946;DHT22;34999;50.940;3.998;2023-06-24T04:16:36;15.10;99.20
48946;DHT22;34999;50.940;3.998;2023-06-24T04:19:05;15.10;98.70
48946;DHT22;34999;50.940;3.998;2023-06-24T04:21:33;15.20;98.20
48946;DHT22;34999;50.940;3.998;2023-06-24T04:24:01;15.20;99.90
48946;DHT22;34999;50.940;3.998;2023-06-24T04:26:30;15.20;99.90
48946;DHT22;34999;50.940;3.998;2023-06-24T04:28:58;15.20;99.90
48946;DHT22;34999;50.940;3.998;2023-06-24T04:31:28;15.20;99.90
48946;DHT22;34999;50.940;3.998;2023-06-24T04:33:56;15.20;99.90
48946;DHT22;34999;50.940;3.998;2023-06-24T04:36:24;15.30;99.90
48946;DHT22;34999;50.940;3.998;2023-06-24T04:38:53;15.40;99.90
48946;DHT22;34999;50.940;3.998;2023-06-24T04:41:21;15.50;99.60
48946;DHT22;34999;50.940;3.998;2023-06-24T04:43:49;15.50;99.90
48946;DHT22;34999;50.940;3.998;2023-06-24T04:46:18;15.60;98.50
48946;DHT22;34999;50.940;3.998;2023-06-24T04:48:47;15.60;96.10
48946;DHT22;34999;50.940;3.998;2023-06-24T04:51:16;15.70;95.40
48946;DHT22;34999;50.940;3.998;2023-06-24T04:53:44;15.80;93.30
48946;DHT22;34999;50.940;3.998;2023-06-24T04:56:12;15.90;92.10
48946;DHT22;34999;50.940;3.998;2023-06-24T04:58:40;15.90;74.90
48946;DHT22;34999;50.940;3.998;2023-06-24T05:01:10;16.00;69.80
48946;DHT22;34999;50.940;3.998;2023-06-24T05:03:38;16.10;64.50
48946;DHT22;34999;50.940;3.998;2023-06-24T05:06:08;16.20;58.00
48946;DHT22;34999;50.940;3.998;2023-06-24T05:08:36;16.20;57.90
48946;DHT22;34999;50.940;3.998;2023-06-24T05:11:04;16.40;44.50
48946;DHT22;34999;50.940;3.998;2023-06-24T05:13:32;16.40;38.40
48946;DHT22;34999;50.940;3.998;2023-06-24T05:16:01;16.50;37.30
48946;DHT22;34999;50.940;3.998;2023-06-24T05:18:29;16.60;41.40
48946;DHT22;34999;50.940;3.998;2023-06-24T05:20:57;16.70;31.50
48946;DHT22;34999;50.940;3.998;2023-06-24T05:23:27;16.80;35.60
48946;DHT22;34999;50.940;3.998;2023-06-24T05:25:55;16.90;35.30
48946;DHT22;34999;50.940;3.998;2023-06-24T05:28:23;17.00;26.00
48946;DHT22;34999;50.940;3.998;2023-06-24T05:30:52;17.10;26.10
48946;DHT22;34999;50.940;3.998;2023-06-24T05:33:20;17.10;28.90
48946;DHT22;34999;50.940;3.998;2023-06-24T05:35:48;17.20;20.50
48946;DHT22;34999;50.940;3.998;2023-06-24T05:38:17;17.30;28.60
48946;DHT22;34999;50.940;3.998;2023-06-24T05:40:47;17.50;1.00
48946;DHT22;34999;50.940;3.998;2023-06-24T05:43:15;17.60;6.90
48946;DHT22;34999;50.940;3.998;2023-06-24T05:45:44;17.60;12.40
48946;DHT22;34999;50.940;3.998;2023-06-24T05:48:14;17.60;3.30
48946;DHT22;34999;50.940;3.998;2023-06-24T05:50:42;17.60;1.00
48946;DHT22;34999;50.940;3.998;2023-06-24T05:53:10;17.70;1.00
48946;DHT22;34999;50.940;3.998;2023-06-24T05:55:39;17.70;1.00
48946;DHT22;34999;50.940;3.998;2023-06-24T05:58:08;17.70;18.30
48946;DHT22;34999;50.940;3.998;2023-06-24T06:00:37;17.90;24.00
48946;DHT22;34999;50.940;3.998;2023-06-24T06:03:05;18.00;7.80
48946;DHT22;34999;50.940;3.998;2023-06-24T06:05:33;18.00;1.70
48946;DHT22;34999;50.940;3.998;2023-06-24T06:08:02;18.20;9.80
48946;DHT22;34999;50.940;3.998;2023-06-24T06:10:30;18.40;8.10
48946;DHT22;34999;50.940;3.998;2023-06-24T06:12:59;18.50;1.00
48946;DHT22;34999;50.940;3.998;2023-06-24T06:15:28;18.50;1.00
48946;DHT22;34999;50.940;3.998;2023-06-24T06:17:57;18.50;1.00
48946;DHT22;34999;50.940;3.998;2023-06-24T06:20:25;18.60;1.00
48946;DHT22;34999;50.940;3.998;2023-06-24T06:22:53;18.80;13.20
48946;DHT22;34999;50.940;3.998;2023-06-24T06:25:22;19.10;1.00
48946;DHT22;34999;50.940;3.998;2023-06-24T06:27:50;19.10;1.00
48946;DHT22;34999;50.940;3.998;2023-06-24T06:30:18;19.20;1.00
48946;DHT22;34999;50.940;3.998;2023-06-24T06:32:49;19.20;1.00
48946;DHT22;34999;50.940;3.998;2023-06-24T06:35:18;19.40;1.00
48946;DHT22;34999;50.940;3.998;2023-06-24T06:37:46;19.50;1.00
48946;DHT22;34999;50.940;3.998;2023-06-24T06:40:23;19.60;1.00
48946;DHT22;34999;50.940;3.998;2023-06-24T06:42:51;19.90;1.00
48946;DHT22;34999;50.940;3.998;2023-06-24T06:45:19;19.90;1.00
48946;DHT22;34999;50.940;3.998;2023-06-24T06:47:49;19.80;1.00
48946;DHT22;34999;50.940;3.998;2023-06-24T06:50:18;19.80;1.00
48946;DHT22;34999;50.940;3.998;2023-06-24T06:52:46;19.80;1.00
48946;DHT22;34999;50.940;3.998;2023-06-24T06:55:15;19.90;1.00
48946;DHT22;34999;50.940;3.998;2023-06-24T06:57:43;19.90;1.00
48946;DHT22;34999;50.940;3.998;2023-06-24T07:00:12;19.90;1.00
48946;DHT22;34999;50.940;3.998;2023-06-24T07:02:41;20.10;1.00
48946;DHT22;34999;50.940;3.998;2023-06-24T07:05:11;20.10;1.00
48946;DHT22;34999;50.940;3.998;2023-06-24T07:07:41;20.10;1.00
48946;DHT22;34999;50.940;3.998;2023-06-24T07:10:13;20.20;1.00
48946;DHT22;34999;50.940;3.998;2023-06-24T07:12:42;20.30;1.00
48946;DHT22;34999;50.940;3.998;2023-06-24T07:15:10;20.30;1.00
48946;DHT22;34999;50.940;3.998;2023-06-24T07:17:40;20.40;1.00
48946;DHT22;34999;50.940;3.998;2023-06-24T07:20:11;20.40;1.00
48946;DHT22;34999;50.940;3.998;2023-06-24T07:22:39;20.50;1.00
48946;DHT22;34999;50.940;3.998;2023-06-24T07:25:07;20.60;1.00
48946;DHT22;34999;50.940;3.998;2023-06-24T07:27:36;20.60;1.00
48946;DHT22;34999;50.940;3.998;2023-06-24T07:30:05;20.70;1.00
48946;DHT22;34999;50.940;3.998;2023-06-24T07:32:34;20.70;1.00
48946;DHT22;34999;50.940;3.998;2023-06-24T07:35:02;20.70;1.00
48946;DHT22;34999;50.940;3.998;2023-06-24T07:37:32;20.90;1.00
48946;DHT22;34999;50.940;3.998;2023-06-24T07:40:00;21.30;1.00
48946;DHT22;34999;50.940;3.998;2023-06-24T07:42:29;21.30;1.00
48946;DHT22;34999;50.940;3.998;2023-06-24T07:44:57;21.30;1.00
48946;DHT22;34999;50.940;3.998;2023-06-24T07:47:26;21.30;1.00
48946;DHT22;34999;50.940;3.998;2023-06-24T07:49:54;21.30;1.00
48946;DHT22;34999;50.940;3.998;2023-06-24T07:52:22;21.50;1.00
48946;DHT22;34999;50.940;3.998;2023-06-24T07:54:52;21.80;1.00
48946;DHT22;34999;50.940;3.998;2023-06-24T07:57:21;21.80;1.00
48946;DHT22;34999;50.940;3.998;2023-06-24T07:59:49;22.00;1.00
48946;DHT22;34999;50.940;3.998;2023-06-24T08:02:17;22.20;1.00
48946;DHT22;34999;50.940;3.998;2023-06-24T08:04:46;22.30;1.00
48946;DHT22;34999;50.940;3.998;2023-06-24T08:07:14;22.40;1.00
48946;DHT22;34999;50.940;3.998;2023-06-24T08:09:43;22.40;1.00
48946;DHT22;34999;50.940;3.998;2023-06-24T08:12:13;22.50;1.00
48946;DHT22;34999;50.940;3.998;2023-06-24T08:14:41;22.40;1.00
48946;DHT22;34999;50.940;3.998;2023-06-24T08:17:09;22.60;1.00
48946;DHT22;34999;50.940;3.998;2023-06-24T08:19:37;22.90;1.00
48946;DHT22;34999;50.940;3.998;2023-06-24T08:22:06;23.00;1.00
48946;DHT22;34999;50.940;3.998;2023-06-24T08:24:34;23.00;99.90
48946;DHT22;34999;50.940;3.998;2023-06-24T08:27:03;22.80;99.90
48946;DHT22;34999;50.940;3.998;2023-06-24T08:29:32;22.70;99.90
48946;DHT22;34999;50.940;3.998;2023-06-24T08:32:01;22.80;1.00
48946;DHT22;34999;50.940;3.998;2023-06-24T08:34:29;23.00;1.00
48946;DHT22;34999;50.940;3.998;2023-06-24T08:36:57;23.10;1.00
48946;DHT22;34999;50.940;3.998;2023-06-24T08:39:26;23.20;1.00
48946;DHT22;34999;50.940;3.998;2023-06-24T08:41:54;23.40;1.00
48946;DHT22;34999;50.940;3.998;2023-06-24T08:44:22;23.50;1.00
48946;DHT22;34999;50.940;3.998;2023-06-24T08:46:52;23.70;1.00
48946;DHT22;34999;50.940;3.998;2023-06-24T08:49:27;23.80;1.00
48946;DHT22;34999;50.940;3.998;2023-06-24T08:52:00;24.00;1.00
48946;DHT22;34999;50.940;3.998;2023-06-24T08:54:30;24.00;1.00
48946;DHT22;34999;50.940;3.998;2023-06-24T08:57:04;23.90;95.30
48946;DHT22;34999;50.940;3.998;2023-06-24T08:59:36;23.80;1.00
48946;DHT22;34999;50.940;3.998;2023-06-24T09:02:07;24.00;1.00
48946;DHT22;34999;50.940;3.998;2023-06-24T09:04:35;24.00;1.00
48946;DHT22;34999;50.940;3.998;2023-06-24T09:07:04;24.30;99.90
48946;DHT22;34999;50.940;3.998;2023-06-24T09:09:42;24.40;1.00
48946;DHT22;34999;50.940;3.998;2023-06-24T09:12:13;24.40;1.00
48946;DHT22;34999;50.940;3.998;2023-06-24T09:14:48;24.40;1.00
48946;DHT22;34999;50.940;3.998;2023-06-24T09:17:19;24.60;28.90
48946;DHT22;34999;50.940;3.998;2023-06-24T09:19:50;24.60;76.70
48946;DHT22;34999;50.940;3.998;2023-06-24T09:22:19;24.80;99.90
48946;DHT22;34999;50.940;3.998;2023-06-24T09:24:48;25.10;99.90
48946;DHT22;34999;50.940;3.998;2023-06-24T09:27:17;25.00;99.90
48946;DHT22;34999;50.940;3.998;2023-06-24T09:29:47;24.90;99.90
48946;DHT22;34999;50.940;3.998;2023-06-24T09:32:19;25.00;99.90
48946;DHT22;34999;50.940;3.998;2023-06-24T09:34:48;25.30;1.00
48946;DHT22;34999;50.940;3.998;2023-06-24T09:37:21;25.40;99.90
48946;DHT22;34999;50.940;3.998;2023-06-24T09:39:50;25.60;1.00
48946;DHT22;34999;50.940;3.998;2023-06-24T09:42:21;25.80;1.00
48946;DHT22;34999;50.940;3.998;2023-06-24T09:44:54;26.00;1.00
48946;DHT22;34999;50.940;3.998;2023-06-24T09:47:24;25.90;1.00
48946;DHT22;34999;50.940;3.998;2023-06-24T09:49:54;25.60;1.00
48946;DHT22;34999;50.940;3.998;2023-06-24T09:52:28;25.50;1.00
48946;DHT22;34999;50.940;3.998;2023-06-24T09:54:57;25.50;1.00
48946;DHT22;34999;50.940;3.998;2023-06-24T09:57:32;25.70;34.00
48946;DHT22;34999;50.940;3.998;2023-06-24T10:00:02;25.90;1.00
48946;DHT22;34999;50.940;3.998;2023-06-24T10:02:33;26.20;1.00
48946;DHT22;34999;50.940;3.998;2023-06-24T10:05:02;26.30;1.00
48946;DHT22;34999;50.940;3.998;2023-06-24T10:07:32;26.60;99.90
48946;DHT22;34999;50.940;3.998;2023-06-24T10:10:02;26.50;1.00
48946;DHT22;34999;50.940;3.998;2023-06-24T10:12:31;26.40;92.00
48946;DHT22;34999;50.940;3.998;2023-06-24T10:15:00;26.40;99.90
48946;DHT22;34999;50.940;3.998;2023-06-24T10:17:29;26.50;99.90
48946;DHT22;34999;50.940;3.998;2023-06-24T10:20:03;26.60;1.00
48946;DHT22;34999;50.940;3.998;2023-06-24T10:22:32;26.70;99.90
48946;DHT22;34999;50.940;3.998;2023-06-24T10:25:01;26.70;3.50
48946;DHT22;34999;50.940;3.998;2023-06-24T10:27:29;26.80;1.00
48946;DHT22;34999;50.940;3.998;2023-06-24T10:30:03;26.80;99.90
48946;DHT22;34999;50.940;3.998;2023-06-24T10:32:40;27.10;59.30
48946;DHT22;34999;50.940;3.998;2023-06-24T10:35:22;27.00;99.90
48946;DHT22;34999;50.940;3.998;2023-06-24T10:37:55;26.90;99.90
48946;DHT22;34999;50.940;3.998;2023-06-24T10:40:37;26.80;70.70
48946;DHT22;34999;50.940;3.998;2023-06-24T10:43:26;26.90;99.90
48946;DHT22;34999;50.940;3.998;2023-06-24T10:45:55;27.10;72.50
48946;DHT22;34999;50.940;3.998;2023-06-24T10:48:24;27.30;99.90
48946;DHT22;34999;50.940;3.998;2023-06-24T10:50:54;27.40;99.90
48946;DHT22;34999;50.940;3.998;2023-06-24T10:53:22;27.50;1.00
48946;DHT22;34999;50.940;3.998;2023-06-24T10:55:50;27.50;1.00
48946;DHT22;34999;50.940;3.998;2023-06-24T10:58:18;27.50;99.90
48946;DHT22;34999;50.940;3.998;2023-06-24T11:00:47;27.70;1.00
48946;DHT22;34999;50.940;3.998;2023-06-24T11:03:17;27.80;1.00
48946;DHT22;34999;50.940;3.998;2023-06-24T11:05:46;27.70;99.90
48946;DHT22;34999;50.940;3.998;2023-06-24T11:08:17;27.80;99.90
48946;DHT22;34999;50.940;3.998;2023-06-24T11:10:46;27.80;99.90
48946;DHT22;34999;50.940;3.998;2023-06-24T11:13:15;27.60;28.20
48946;DHT22;34999;50.940;3.998;2023-06-24T11:15:43;27.60;1.00
48946;DHT22;34999;50.940;3.998;2023-06-24T11:18:11;27.80;99.90
48946;DHT22;34999;50.940;3.998;2023-06-24T11:20:40;27.80;1.00
48946;DHT22;34999;50.940;3.998;2023-06-24T11:23:11;27.70;1.00
48946;DHT22;34999;50.940;3.998;2023-06-24T11:25:42;27.70;1.00
48946;DHT22;34999;50.940;3.998;2023-06-24T11:28:15;27.80;99.90
48946;DHT22;34999;50.940;3.998;2023-06-24T11:30:48;27.80;1.00
48946;DHT22;34999;50.940;3.998;2023-06-24T11:33:26;27.90;99.90
48946;DHT22;34999;50.940;3.998;2023-06-24T11:35:54;27.90;99.90
48946;DHT22;34999;50.940;3.998;2023-06-24T11:38:23;28.00;96.10
48946;DHT22;34999;50.940;3.998;2023-06-24T11:41:00;28.00;99.10
48946;DHT22;34999;50.940;3.998;2023-06-24T11:43:29;28.20;99.90
48946;DHT22;34999;50.940;3.998;2023-06-24T11:45:57;28.20;99.90
48946;DHT22;34999;50.940;3.998;2023-06-24T11:48:27;28.20;99.90
48946;DHT22;34999;50.940;3.998;2023-06-24T11:50:57;28.20;99.90
48946;DHT22;34999;50.940;3.998;2023-06-24T11:53:40;28.20;99.90
48946;DHT22;34999;50.940;3.998;2023-06-24T11:56:11;28.30;99.90
48946;DHT22;34999;50.940;3.998;2023-06-24T11:58:41;28.30;99.90
48946;DHT22;34999;50.940;3.998;2023-06-24T12:01:11;28.30;99.90
48946;DHT22;34999;50.940;3.998;2023-06-24T12:03:41;28.40;99.90
48946;DHT22;34999;50.940;3.998;2023-06-24T12:06:09;28.50;99.90
48946;DHT22;34999;50.940;3.998;2023-06-24T12:08:39;28.60;99.90
48946;DHT22;34999;50.940;3.998;2023-06-24T12:11:19;28.60;99.90
48946;DHT22;34999;50.940;3.998;2023-06-24T12:13:48;28.60;99.90
48946;DHT22;34999;50.940;3.998;2023-06-24T12:16:16;28.60;99.90
48946;DHT22;34999;50.940;3.998;2023-06-24T12:19:03;28.70;99.90
48946;DHT22;34999;50.940;3.998;2023-06-24T12:21:31;28.50;99.90
48946;DHT22;34999;50.940;3.998;2023-06-24T12:24:00;28.60;99.90
48946;DHT22;34999;50.940;3.998;2023-06-24T12:26:30;28.70;99.90
48946;DHT22;34999;50.940;3.998;2023-06-24T12:28:59;28.60;99.90
48946;DHT22;34999;50.940;3.998;2023-06-24T12:31:27;28.60;99.90
48946;DHT22;34999;50.940;3.998;2023-06-24T12:33:55;28.80;99.90
48946;DHT22;34999;50.940;3.998;2023-06-24T12:36:24;28.80;99.90
48946;DHT22;34999;50.940;3.998;2023-06-24T12:38:52;28.80;99.90
48946;DHT22;34999;50.940;3.998;2023-06-24T12:41:20;28.80;99.90
48946;DHT22;34999;50.940;3.998;2023-06-24T12:43:50;28.80;99.90
48946;DHT22;34999;50.940;3.998;2023-06-24T12:46:18;28.90;99.90
48946;DHT22;34999;50.940;3.998;2023-06-24T12:48:46;28.90;99.90
48946;DHT22;34999;50.940;3.998;2023-06-24T12:51:15;28.90;99.90
48946;DHT22;34999;50.940;3.998;2023-06-24T12:53:43;28.90;99.90
48946;DHT22;34999;50.940;3.998;2023-06-24T12:56:11;28.90;99.90
48946;DHT22;34999;50.940;3.998;2023-06-24T12:58:40;28.90;99.90
48946;DHT22;34999;50.940;3.998;2023-06-24T13:01:12;29.00;99.90
48946;DHT22;34999;50.940;3.998;2023-06-24T13:03:43;29.00;99.90
48946;DHT22;34999;50.940;3.998;2023-06-24T13:06:11;29.00;99.90
48946;DHT22;34999;50.940;3.998;2023-06-24T13:08:41;29.10;99.90
48946;DHT22;34999;50.940;3.998;2023-06-24T13:11:10;29.30;99.90
48946;DHT22;34999;50.940;3.998;2023-06-24T13:13:39;29.40;99.90
48946;DHT22;34999;50.940;3.998;2023-06-24T13:16:08;29.50;99.90
48946;DHT22;34999;50.940;3.998;2023-06-24T13:18:56;29.70;99.90
48946;DHT22;34999;50.940;3.998;2023-06-24T13:21:24;29.70;99.90
48946;DHT22;34999;50.940;3.998;2023-06-24T13:23:52;29.60;99.90
48946;DHT22;34999;50.940;3.998;2023-06-24T13:26:21;29.50;99.90
48946;DHT22;34999;50.940;3.998;2023-06-24T13:28:49;29.40;99.90
48946;DHT22;34999;50.940;3.998;2023-06-24T13:31:21;29.30;99.90
48946;DHT22;34999;50.940;3.998;2023-06-24T13:33:49;29.40;99.90
48946;DHT22;34999;50.940;3.998;2023-06-24T13:36:32;29.50;99.90
48946;DHT22;34999;50.940;3.998;2023-06-24T13:39:03;29.60;99.90
48946;DHT22;34999;50.940;3.998;2023-06-24T13:41:34;29.80;99.90
48946;DHT22;34999;50.940;3.998;2023-06-24T13:44:04;29.80;99.90
48946;DHT22;34999;50.940;3.998;2023-06-24T13:46:33;29.90;99.90
48946;DHT22;34999;50.940;3.998;2023-06-24T13:49:04;30.00;99.90
48946;DHT22;34999;50.940;3.998;2023-06-24T13:51:32;30.10;99.90
48946;DHT22;34999;50.940;3.998;2023-06-24T13:54:03;29.90;99.90
48946;DHT22;34999;50.940;3.998;2023-06-24T13:56:31;29.90;99.90
48946;DHT22;34999;50.940;3.998;2023-06-24T13:59:00;30.00;99.90
48946;DHT22;34999;50.940;3.998;2023-06-24T14:01:28;30.20;99.90
48946;DHT22;34999;50.940;3.998;2023-06-24T14:03:58;30.40;99.90
48946;DHT22;34999;50.940;3.998;2023-06-24T14:06:26;30.50;99.90
48946;DHT22;34999;50.940;3.998;2023-06-24T14:08:55;30.60;99.90
48946;DHT22;34999;50.940;3.998;2023-06-24T14:11:23;30.90;99.90
48946;DHT22;34999;50.940;3.998;2023-06-24T14:13:51;30.90;99.90
48946;DHT22;34999;50.940;3.998;2023-06-24T14:16:22;31.10;99.90
48946;DHT22;34999;50.940;3.998;2023-06-24T14:18:50;31.10;99.90
48946;DHT22;34999;50.940;3.998;2023-06-24T14:21:20;31.20;99.90
48946;DHT22;34999;50.940;3.998;2023-06-24T14:23:48;31.30;99.90
48946;DHT22;34999;50.940;3.998;2023-06-24T14:26:20;31.40;99.90
48946;DHT22;34999;50.940;3.998;2023-06-24T14:28:48;31.30;99.90
48946;DHT22;34999;50.940;3.998;2023-06-24T14:31:17;31.40;99.90
48946;DHT22;34999;50.940;3.998;2023-06-24T14:33:45;31.40;99.90
48946;DHT22;34999;50.940;3.998;2023-06-24T14:36:13;31.40;99.90
48946;DHT22;34999;50.940;3.998;2023-06-24T14:39:03;31.60;99.90
48946;DHT22;34999;50.940;3.998;2023-06-24T14:41:32;31.40;99.90
48946;DHT22;34999;50.940;3.998;2023-06-24T14:44:01;31.40;99.90
48946;DHT22;34999;50.940;3.998;2023-06-24T14:46:29;31.40;99.90
48946;DHT22;34999;50.940;3.998;2023-06-24T14:48:58;31.70;99.90
48946;DHT22;34999;50.940;3.998;2023-06-24T14:51:47;31.70;99.90
48946;DHT22;34999;50.940;3.998;2023-06-24T14:54:17;31.50;99.90
48946;DHT22;34999;50.940;3.998;2023-06-24T14:56:45;31.40;99.90
48946;DHT22;34999;50.940;3.998;2023-06-24T14:59:14;31.30;99.90
48946;DHT22;34999;50.940;3.998;2023-06-24T15:01:43;31.30;99.90
48946;DHT22;34999;50.940;3.998;2023-06-24T15:04:11;31.40;99.90
48946;DHT22;34999;50.940;3.998;2023-06-24T15:06:39;31.70;99.90
48946;DHT22;34999;50.940;3.998;2023-06-24T15:09:07;31.80;99.90
48946;DHT22;34999;50.940;3.998;2023-06-24T15:11:37;32.00;99.60
48946;DHT22;34999;50.940;3.998;2023-06-24T15:17:15;32.40;99.90
48946;DHT22;34999;50.940;3.998;2023-06-24T15:19:43;32.50;99.90
48946;DHT22;34999;50.940;3.998;2023-06-24T15:22:11;32.50;99.90
48946;DHT22;34999;50.940;3.998;2023-06-24T15:24:39;32.50;99.90
48946;DHT22;34999;50.940;3.998;2023-06-24T15:27:12;32.50;99.90
48946;DHT22;34999;50.940;3.998;2023-06-24T15:29:41;32.60;99.90
48946;DHT22;34999;50.940;3.998;2023-06-24T15:32:10;32.70;99.90
48946;DHT22;34999;50.940;3.998;2023-06-24T15:34:39;32.80;99.90
48946;DHT22;34999;50.940;3.998;2023-06-24T15:37:08;33.00;99.90
48946;DHT22;34999;50.940;3.998;2023-06-24T15:39:36;32.80;98.40
48946;DHT22;34999;50.940;3.998;2023-06-24T15:42:04;32.80;99.90
48946;DHT22;34999;50.940;3.998;2023-06-24T15:44:36;32.80;99.90
48946;DHT22;34999;50.940;3.998;2023-06-24T15:47:05;32.80;99.90
48946;DHT22;34999;50.940;3.998;2023-06-24T15:49:33;32.70;99.40
48946;DHT22;34999;50.940;3.998;2023-06-24T15:52:02;32.80;95.50
48946;DHT22;34999;50.940;3.998;2023-06-24T15:54:30;32.90;96.10
48946;DHT22;34999;50.940;3.998;2023-06-24T15:56:58;32.80;97.20
48946;DHT22;34999;50.940;3.998;2023-06-24T15:59:27;32.60;99.20